^^
Datos históricos de la estación: Murcia-Puente Tocinos
Diario Informe para Agosto 19, 2019 Unidades:  Ingés    Métrico   Ambas
Diario Semanal Mensual Anual
  Máxima: Mínima: Promedio:
Temperatura: 77.4 °F 58.3 °F 67.5 °F
Punto de rocio: 56.3 °F 32.4 °F 44.1 °F
Humedad: 84% 19.8% 48%
Velocidad viento: 12.5mph 0mph 4.7mph
Racha viento: 22mph - -
Viento- - SSO
Presión: 29.8 in 29.7 in -
Precipitación: 0 in    
 
 
Tabla de datos para Agosto 19, 2019
Hora Temperatura Punto de rocio Presión Viento Velocidad viento Racha viento Humedad Intensidad lluvia(por hora) Nubes
00:04 62.4 °F 56.1 °F 29.8 in ENE 1.8 mph 5 mph 80% 0 in
00:09 62.2 °F 56.1 °F 29.8 in ENE 1.9 mph 5 mph 80.6% 0 in
00:14 62.2 °F 56.3 °F 29.8 in NNE 2 mph 4 mph 81% 0 in
00:19 62.1 °F 56.1 °F 29.8 in NNO 2 mph 5 mph 80.8% 0 in
00:24 62.1 °F 56.1 °F 29.8 in NNO 2 mph 5 mph 81% 0 in
00:29 61.9 °F 55.9 °F 29.8 in NNO 1.9 mph 5 mph 81% 0 in
00:34 61.5 °F 55.8 °F 29.8 in NE 1.8 mph 4.6 mph 81% 0 in
00:39 61.5 °F 55.9 °F 29.8 in NE 2.1 mph 5 mph 81.8% 0 in
00:44 61.3 °F 55.6 °F 29.8 in Este 2.4 mph 4 mph 81.3% 0 in
00:49 61.2 °F 55 °F 29.8 in SE 2.4 mph 5 mph 80% 0 in
00:54 61.2 °F 55 °F 29.8 in SE 2.4 mph 5.9 mph 80.3% 0 in
00:59 61.2 °F 55.2 °F 29.8 in NNO 2.4 mph 6 mph 81% 0 in
01:04 61 °F 55.2 °F 29.8 in NNO 2.4 mph 6 mph 81.4% 0 in
01:09 60.6 °F 55.2 °F 29.8 in NNO 2 mph 3.6 mph 82% 0 in
01:14 60.6 °F 55 °F 29.8 in NO 1.4 mph 5.4 mph 82.2% 0 in
01:19 60.3 °F 55 °F 29.8 in Oeste 2 mph 6 mph 82.4% 0 in
01:24 60.3 °F 55 °F 29.8 in Oeste 2.9 mph 6 mph 83% 0 in
01:29 60.1 °F 54.9 °F 29.8 in ONO 2.5 mph 5 mph 83% 0 in
01:34 60.1 °F 54.9 °F 29.8 in ONO 2 mph 5 mph 83% 0 in
01:39 60.1 °F 55.2 °F 29.8 in ONO 1.8 mph 3 mph 84% 0 in
01:44 60.1 °F 55.2 °F 29.8 in OSO 1.4 mph 2.9 mph 84% 0 in
01:49 60.3 °F 55.4 °F 29.8 in SSE 1.4 mph 5.2 mph 84% 0 in
01:54 60.3 °F 55 °F 29.8 in Sur 1.4 mph 6.2 mph 82.5% 0 in
01:59 60.3 °F 54.5 °F 29.8 in SSO 2.3 mph 6 mph 81.4% 0 in
02:04 60.3 °F 54.1 °F 29.8 in Sur 3.6 mph 6 mph 80.3% 0 in
02:09 60.1 °F 53.8 °F 29.8 in SSE 3.4 mph 6 mph 80% 0 in
02:14 59.9 °F 53.8 °F 29.8 in SSE 3.1 mph 6 mph 80% 0 in
02:19 60.1 °F 54 °F 29.8 in SSE 3 mph 5.2 mph 80% 0 in
02:24 60.1 °F 54 °F 29.8 in SSE 2.9 mph 5.9 mph 80% 0 in
02:29 60.1 °F 54 °F 29.8 in SSE 3.2 mph 6 mph 80% 0 in
02:34 60.3 °F 54.1 °F 29.8 in SSO 3.6 mph 6.9 mph 80.2% 0 in
02:39 60.4 °F 54.3 °F 29.8 in SSO 3.4 mph 7 mph 80.4% 0 in
02:44 60.6 °F 54.3 °F 29.8 in SSO 3.1 mph 5 mph 80% 0 in
02:49 60.6 °F 54.5 °F 29.8 in SO 2.7 mph 5 mph 80.1% 0 in
02:54 60.8 °F 54.5 °F 29.8 in SO 2 mph 5 mph 80% 0 in
02:59 60.6 °F 54.1 °F 29.8 in SO 1.2 mph 2.3 mph 79% 0 in
03:04 60.6 °F 54.1 °F 29.8 in Calm   2 mph 79% 0 in
03:09 60.4 °F 54 °F 29.8 in Calm     79% 0 in
03:14 60.4 °F 54.1 °F 29.8 in Calm   3.5 mph 79.8% 0 in
03:19 60.3 °F 54.3 °F 29.8 in Calm   3.1 mph 80.5% 0 in
03:24 60.3 °F 54.3 °F 29.8 in Calm   4 mph 81% 0 in
03:29 60.1 °F 54.1 °F 29.8 in OSO 0.7 mph 4.6 mph 81% 0 in
03:34 60.1 °F 54.1 °F 29.8 in OSO 1.8 mph 5 mph 81% 0 in
03:39 59.9 °F 54.1 °F 29.8 in OSO 1.9 mph 5 mph 81% 0 in
03:44 60.1 °F 54.1 °F 29.8 in OSO 2 mph 5.2 mph 81% 0 in
03:49 60.1 °F 54.1 °F 29.8 in OSO 2.4 mph 5.9 mph 80.7% 0 in
03:54 60.1 °F 54 °F 29.8 in OSO 3.1 mph 6.9 mph 80.1% 0 in
03:59 60.1 °F 54 °F 29.8 in OSO 3.5 mph 7 mph 80.1% 0 in
04:04 60.1 °F 54 °F 29.8 in SO 4 mph 5 mph 80% 0 in
04:09 60.1 °F 53.8 °F 29.8 in SSO 3.4 mph 5.2 mph 79.9% 0 in
04:14 59.9 °F 53.4 °F 29.8 in SSO 2.4 mph 5 mph 79% 0 in
04:19 59.7 °F 53.4 °F 29.8 in SO 2.4 mph 5 mph 79.7% 0 in
04:24 59.7 °F 53.4 °F 29.8 in SO 2.4 mph 4 mph 80% 0 in
04:29 59.5 °F 52.9 °F 29.8 in SE 2.6 mph 10.7 mph 78.9% 0 in
04:34 58.6 °F 52.2 °F 29.8 in SSE 2.9 mph 11 mph 79.6% 0 in
04:39 58.3 °F 52.5 °F 29.8 in SSO 4 mph 9 mph 81.2% 0 in
04:44 58.5 °F 52.9 °F 29.8 in SO 5.9 mph 7 mph 82% 0 in
04:49 58.6 °F 53.1 °F 29.8 in SO 5.2 mph 6.2 mph 81.7% 0 in
04:54 59 °F 53.2 °F 29.8 in SSO 4 mph 6 mph 80.9% 0 in
04:59 59.4 °F 53.1 °F 29.8 in Sur 4.2 mph 7.4 mph 79.7% 0 in
05:04 59.4 °F 52.7 °F 29.8 in Sur 4.3 mph 7.4 mph 78.8% 0 in
05:09 59.4 °F 52.5 °F 29.8 in SSO 4.5 mph 7 mph 77.9% 0 in
05:14 59.5 °F 52.3 °F 29.8 in Sur 4.7 mph 7 mph 77% 0 in
05:19 59.5 °F 52.2 °F 29.8 in SSE 4.4 mph 7 mph 77% 0 in
05:24 59.4 °F 51.8 °F 29.8 in SSE 4 mph 6.2 mph 76.2% 0 in
05:29 59.2 °F 51.1 °F 29.8 in Sur 3.9 mph 6.9 mph 74.6% 0 in
05:34 59 °F 50.2 °F 29.8 in Sur 3.6 mph 7 mph 72.7% 0 in
05:39 59 °F 50 °F 29.8 in Sur 4 mph 8.5 mph 72% 0 in
05:44 59 °F 49.8 °F 29.8 in SSO 4.7 mph 9.2 mph 71.5% 0 in
05:49 59.2 °F 49.6 °F 29.8 in SO 5.2 mph 9.2 mph 71% 0 in
05:54 59.2 °F 49.5 °F 29.8 in SO 6.2 mph 9.2 mph 69.8% 0 in
05:59 59.4 °F 49.1 °F 29.8 in OSO 5.8 mph 9 mph 68.5% 0 in
06:04 59.5 °F 48.9 °F 29.8 in OSO 5.4 mph 9 mph 68% 0 in
06:09 59.4 °F 48.6 °F 29.8 in OSO 5 mph 9 mph 67.5% 0 in
06:14 59.4 °F 48 °F 29.8 in SO 4.3 mph 8 mph 66.1% 0 in
06:19 59.4 °F 48.2 °F 29.8 in SO 4.2 mph 7 mph 66.5% 0 in
06:24 59.5 °F 48.6 °F 29.8 in SSO 4 mph 5 mph 67% 0 in
06:29 59.5 °F 48.6 °F 29.8 in SSO 3.3 mph 5 mph 67% 0 in
06:34 59.5 °F 48.9 °F 29.8 in OSO 2 mph 4.6 mph 67.7% 0 in
06:39 59.5 °F 48.9 °F 29.8 in ONO 1.9 mph 5 mph 68% 0 in
06:44 59.5 °F 48.9 °F 29.8 in Oeste 1.8 mph 5 mph 68% 0 in
06:49 59.5 °F 48.9 °F 29.8 in Oeste 2.1 mph 5 mph 68% 0 in
06:54 59.4 °F 48.7 °F 29.8 in Oeste 2.4 mph 5 mph 68% 0 in
06:59 59.4 °F 48.7 °F 29.8 in OSO 2.6 mph 5 mph 68% 0 in
07:04 59.4 °F 48.6 °F 29.8 in OSO 2.9 mph 5 mph 67.6% 0 in
07:09 59.4 °F 48.4 °F 29.8 in OSO 2.4 mph 3 mph 67% 0 in
07:14 59.4 °F 49.1 °F 29.8 in SSO 1.4 mph 4.6 mph 68.6% 0 in
07:19 59.4 °F 49.3 °F 29.8 in SSO 1.6 mph 5 mph 69% 0 in
07:24 59.4 °F 48.6 °F 29.8 in Oeste 1.8 mph 4.6 mph 67.4% 0 in
07:29 59.4 °F 47.7 °F 29.8 in ONO 1.9 mph 5 mph 65.3% 0 in
07:34 59.4 °F 48 °F 29.8 in NO 2 mph 5 mph 66.1% 0 in
07:39 59.4 °F 49.5 °F 29.8 in Este 1.9 mph 5 mph 69.9% 0 in
07:44 59.4 °F 49.5 °F 29.8 in Este 1.8 mph 5 mph 69.8% 0 in
07:49 59.2 °F 48.2 °F 29.8 in Este 1.1 mph 3.6 mph 67.1% 0 in
07:54 59.4 °F 47.8 °F 29.8 in Calm   4 mph 65.6% 0 in
07:59 59.5 °F 47.1 °F 29.8 in SO 0.9 mph 5 mph 63.5% 0 in
08:04 59.7 °F 47.3 °F 29.8 in SO 2.4 mph 5 mph 63.4% 0 in
08:09 59.9 °F 48.6 °F 29.8 in SO 2.6 mph 5 mph 66.2% 0 in
08:14 60.1 °F 49.1 °F 29.8 in SO 2.9 mph 5 mph 67% 0 in
08:19 60.3 °F 49.3 °F 29.8 in SO 2.5 mph 5 mph 67% 0 in
08:24 60.4 °F 49.3 °F 29.8 in Sur 2 mph 5.4 mph 66.6% 0 in
08:29 60.4 °F 47.7 °F 29.8 in Sur 2.6 mph 6.9 mph 62.4% 0 in
08:34 60.8 °F 46.2 °F 29.8 in Sur 3.6 mph 8.1 mph 58.6% 0 in
08:39 61.2 °F 43 °F 29.8 in SO 4 mph 9.7 mph 51.3% 0 in
08:44 61.7 °F 42.6 °F 29.8 in SO 4.7 mph 10 mph 49.6% 0 in
08:49 62.1 °F 42.6 °F 29.8 in SO 4.7 mph 9 mph 49% 0 in
08:54 62.2 °F 42.8 °F 29.8 in SO 4.7 mph 7.4 mph 48.9% 0 in
08:59 62.4 °F 42.3 °F 29.8 in OSO 4.3 mph 7 mph 47.8% 0 in
09:04 62.8 °F 41.5 °F 29.8 in OSO 3.6 mph 6.4 mph 45.8% 0 in
09:09 62.8 °F 40.8 °F 29.8 in OSO 3.7 mph 7 mph 44.5% 0 in
09:14 63.1 °F 40.6 °F 29.8 in OSO 4 mph 8.5 mph 43.7% 0 in
09:19 63.5 °F 39.4 °F 29.8 in OSO 4.3 mph 11.8 mph 41.2% 0 in
09:24 63.9 °F 38.8 °F 29.8 in OSO 4.7 mph 12 mph 39.6% 0 in
09:29 64.2 °F 39.4 °F 29.8 in OSO 5 mph 10 mph 40% 0 in
09:34 64.6 °F 42.1 °F 29.8 in SSO 5.4 mph 7.4 mph 44.1% 0 in
09:39 64.4 °F 42.6 °F 29.8 in Sur 5 mph 7 mph 45% 0 in
09:44 64.6 °F 42.1 °F 29.8 in Sur 4.3 mph 7 mph 44% 0 in
09:49 64.8 °F 39.4 °F 29.8 in ONO 3.9 mph 9.2 mph 39.1% 0 in
09:54 65.3 °F 37.9 °F 29.8 in Oeste 3.1 mph 10.4 mph 36.4% 0 in
09:59 65.7 °F 38.7 °F 29.8 in SO 3.7 mph 10 mph 37.2% 0 in
10:04 65.8 °F 39.9 °F 29.8 in SSE 4.7 mph 9 mph 38.6% 0 in
10:09 66 °F 39 °F 29.8 in Sur 4.9 mph 9.7 mph 37.1% 0 in
10:14 66 °F 39.6 °F 29.8 in SSO 5.2 mph 10 mph 37.8% 0 in
10:19 66.6 °F 40.6 °F 29.8 in SSE 4.8 mph 8 mph 38.9% 0 in
10:24 66.7 °F 40.3 °F 29.8 in SSO 4.3 mph 7.4 mph 37.9% 0 in
10:29 66.9 °F 40.6 °F 29.8 in SO 4.2 mph 7 mph 38.1% 0 in
10:34 67.3 °F 37.9 °F 29.8 in Oeste 4 mph 12.7 mph 34.1% 0 in
10:39 67.6 °F 36.7 °F 29.8 in SO 4.8 mph 13 mph 32% 0 in
10:44 68.2 °F 37 °F 29.8 in OSO 6.2 mph 12 mph 32% 0 in
10:49 68.7 °F 37.6 °F 29.8 in SO 5.7 mph 8.1 mph 32% 0 in
10:54 69.1 °F 37.2 °F 29.8 in SSO 4.7 mph 8.5 mph 31.1% 0 in
10:59 69.3 °F 37 °F 29.8 in SO 4.9 mph 10.4 mph 30.7% 0 in
11:04 69.4 °F 36.7 °F 29.8 in Oeste 5.2 mph 11.8 mph 30% 0 in
11:09 69.3 °F 36.7 °F 29.8 in Oeste 5.6 mph 12 mph 30.2% 0 in
11:14 69.3 °F 36.7 °F 29.8 in Oeste 6.2 mph 9.7 mph 30.2% 0 in
11:19 69.4 °F 36.9 °F 29.8 in OSO 5.8 mph 10.4 mph 30.1% 0 in
11:24 69.6 °F 36.7 °F 29.8 in SO 5.2 mph 11.5 mph 29.9% 0 in
11:29 70 °F 37 °F 29.8 in Oeste 5.2 mph 12 mph 29.9% 0 in
11:34 70.3 °F 36.9 °F 29.8 in ONO 5.2 mph 8.1 mph 29.4% 0 in
11:39 70.5 °F 36.9 °F 29.8 in ONO 4.8 mph 8.1 mph 29.3% 0 in
11:44 70.9 °F 36.3 °F 29.8 in Oeste 4.3 mph 10.4 mph 28.3% 0 in
11:49 70.9 °F 36.1 °F 29.8 in ONO 4.3 mph 12.7 mph 28% 0 in
11:54 71.1 °F 36.3 °F 29.8 in Oeste 4.3 mph 13 mph 28% 0 in
11:59 71.2 °F 36.1 °F 29.8 in SSO 4.7 mph 12 mph 27.6% 0 in
12:04 71.4 °F 36 °F 29.8 in SSO 5.2 mph 9.2 mph 27.3% 0 in
12:09 71.4 °F 36.3 °F 29.8 in Oeste 5 mph 9 mph 27.6% 0 in
12:14 71.8 °F 36 °F 29.8 in SO 4.7 mph 12.7 mph 27% 0 in
12:19 72 °F 35.6 °F 29.8 in OSO 5.2 mph 13 mph 26.6% 0 in
12:24 71.8 °F 35.8 °F 29.8 in OSO 5.9 mph 13 mph 26.7% 0 in
12:29 72 °F 35.6 °F 29.8 in NNO 5.7 mph 14.7 mph 26.3% 0 in
12:34 72.1 °F 35.1 °F 29.8 in NO 5.4 mph 15 mph 25.7% 0 in
12:39 72.1 °F 35.4 °F 29.8 in ONO 5.7 mph 15 mph 26% 0 in
12:44 72.5 °F 36.5 °F 29.8 in NNO 6.2 mph 10 mph 26.9% 0 in
12:49 73 °F 36 °F 29.8 in NNE 5.5 mph 9.2 mph 25.8% 0 in
12:54 73.2 °F 36.3 °F 29.8 in NO 4.3 mph 14.7 mph 26% 0 in
12:59 73 °F 35.6 °F 29.8 in ONO 5 mph 15 mph 25.4% 0 in
13:04 73.4 °F 36.1 °F 29.8 in NNO 5.9 mph 13 mph 25.8% 0 in
13:09 73.6 °F 35.6 °F 29.8 in NNE 5.3 mph 12 mph 25.1% 0 in
13:14 73.6 °F 35.8 °F 29.8 in SE 4.3 mph 6.9 mph 25.1% 0 in
13:19 73.8 °F 35.8 °F 29.8 in SSO 4.2 mph 9.2 mph 25.1% 0 in
13:24 74.5 °F 35.8 °F 29.8 in Oeste 4 mph 14 mph 24.4% 0 in
13:29 74.5 °F 34.5 °F 29.8 in OSO 4.8 mph 14 mph 23.2% 0 in
13:34 74.1 °F 34.2 °F 29.8 in Oeste 6.2 mph 12.7 mph 23.2% 0 in
13:39 74.1 °F 34.7 °F 29.8 in SSO 5.7 mph 13.8 mph 23.8% 0 in
13:44 74.5 °F 34.3 °F 29.8 in SO 4.7 mph 15.2 mph 23.1% 0 in
13:49 74.5 °F 34.2 °F 29.8 in Oeste 6.2 mph 15.9 mph 23% 0 in
13:54 74.7 °F 34.5 °F 29.8 in SO 8.5 mph 16 mph 23.1% 0 in
13:59 74.8 °F 34.7 °F 29.8 in Sur 7.4 mph 15 mph 23.1% 0 in
14:04 75.4 °F 35.1 °F 29.8 in Oeste 5.9 mph 11.5 mph 23% 0 in
14:09 75.6 °F 35.1 °F 29.8 in OSO 5.5 mph 12 mph 23% 0 in
14:14 75.7 °F 35.2 °F 29.8 in Oeste 4.7 mph 9.2 mph 23% 0 in
14:19 75.7 °F 34.7 °F 29.8 in Oeste 5.3 mph 18.4 mph 22.4% 0 in
14:24 75.6 °F 33.6 °F 29.8 in SO 6.4 mph 19 mph 21.8% 0 in
14:29 75.6 °F 32.9 °F 29.8 in OSO 7.8 mph 19 mph 21.1% 0 in
14:34 75.7 °F 34 °F 29.8 in Oeste 10 mph 19 mph 21.8% 0 in
14:39 76.5 °F 34 °F 29.8 in NO 8.6 mph 14 mph 21.3% 0 in
14:44 76.6 °F 32.7 °F 29.8 in ONO 6.2 mph 14 mph 20.3% 0 in
14:49 76.5 °F 33.3 °F 29.8 in NO 6.1 mph 16.1 mph 20.7% 0 in
14:54 76.5 °F 33.6 °F 29.8 in NNO 5.9 mph 16 mph 21% 0 in
14:59 75.9 °F 33.1 °F 29.8 in North 6.6 mph 15 mph 21% 0 in
15:04 75.9 °F 33.4 °F 29.8 in NNE 7.6 mph 12 mph 21.2% 0 in
15:09 76.3 °F 33.4 °F 29.8 in NNO 7 mph 11.5 mph 21% 0 in
15:14 76.6 °F 33.1 °F 29.8 in NNO 5.9 mph 17 mph 20.4% 0 in
15:19 76.8 °F 32.7 °F 29.8 in ONO 6.8 mph 17.5 mph 20% 0 in
15:24 77.4 °F 32.9 °F 29.8 in ONO 8.5 mph 17 mph 19.9% 0 in
15:29 77 °F 32.5 °F 29.8 in Oeste 7.9 mph 13 mph 19.8% 0 in
15:34 77 °F 32.7 °F 29.8 in ONO 6.9 mph 15.9 mph 20% 0 in
15:39 76.6 °F 32.5 °F 29.8 in ONO 6.9 mph 16.1 mph 20% 0 in
15:44 76.5 °F 32.4 °F 29.8 in Oeste 6.9 mph 14 mph 20% 0 in
15:49 76.3 °F 32.5 °F 29.8 in Oeste 6.3 mph 13 mph 20.2% 0 in
15:54 76.6 °F 33.6 °F 29.7 in NO 5.4 mph 13 mph 21% 0 in
15:59 76.6 °F 33.8 °F 29.7 in NO 5.6 mph 13 mph 21% 0 in
16:04 76.8 °F 36 °F 29.8 in North 5.9 mph 10 mph 23% 0 in
16:09 76.3 °F 41.4 °F 29.8 in ESE 5.3 mph 9.2 mph 28.8% 0 in
16:14 75.4 °F 41.5 °F 29.8 in SE 4.3 mph 9.7 mph 29.6% 0 in
16:19 74.8 °F 40.5 °F 29.8 in SE 5 mph 10 mph 29% 0 in
16:24 75.2 °F 40.8 °F 29.7 in SSE 6.2 mph 9.7 mph 29% 0 in
16:29 75.4 °F 40.6 °F 29.7 in SE 5.7 mph 10 mph 28.7% 0 in
16:34 75.7 °F 39.9 °F 29.7 in SO 4.7 mph 10.7 mph 27.5% 0 in
16:39 76.5 °F 39.2 °F 29.7 in SSE 5 mph 11.8 mph 26.2% 0 in
16:44 76.3 °F 42.3 °F 29.7 in ESE 5.4 mph 15 mph 29.8% 0 in
16:49 76.3 °F 43.3 °F 29.7 in SE 5.3 mph 15 mph 31% 0 in
16:54 76.5 °F 43.2 °F 29.7 in SE 5.2 mph 11.5 mph 30.6% 0 in
16:59 76.3 °F 41.7 °F 29.7 in SSE 5.6 mph 12 mph 29.1% 0 in
17:04 76.1 °F 41.9 °F 29.7 in Sur 6.2 mph 12.3 mph 29.6% 0 in
17:09 76.3 °F 41.7 °F 29.7 in OSO 5.9 mph 13 mph 29.1% 0 in
17:14 76.1 °F 41.5 °F 29.7 in Sur 5.4 mph 10.7 mph 29% 0 in
17:19 76.3 °F 41.7 °F 29.7 in Sur 5.6 mph 14 mph 29% 0 in
17:24 76.5 °F 41.7 °F 29.7 in SSO 5.9 mph 14 mph 29% 0 in
17:29 76.1 °F 41.5 °F 29.7 in Sur 6.3 mph 12.7 mph 29.1% 0 in
17:34 75.7 °F 42.3 °F 29.7 in SSE 6.9 mph 13.8 mph 30.1% 0 in
17:39 75.6 °F 42.8 °F 29.7 in SE 7.1 mph 14 mph 30.9% 0 in
17:44 75.6 °F 43.5 °F 29.7 in ESE 7.4 mph 16.1 mph 31.9% 0 in
17:49 75 °F 44.4 °F 29.7 in ESE 7.9 mph 19.7 mph 33.6% 0 in
17:54 74.5 °F 45.9 °F 29.7 in ESE 8.7 mph 21.5 mph 36% 0 in
17:59 73.9 °F 46.8 °F 29.7 in ESE 9.8 mph 22 mph 38% 0 in
18:04 73.4 °F 47.1 °F 29.7 in ESE 11.4 mph 21.9 mph 39.3% 0 in
18:09 73 °F 47.3 °F 29.7 in SE 11.8 mph 22 mph 40% 0 in
18:14 73 °F 47.7 °F 29.7 in ESE 12.5 mph 20 mph 40.7% 0 in
18:19 72.9 °F 48 °F 29.8 in ESE 11.3 mph 16.8 mph 41.2% 0 in
18:24 72.7 °F 48.4 °F 29.8 in ESE 9.2 mph 18.4 mph 42.3% 0 in
18:29 72.7 °F 48.9 °F 29.8 in ESE 10.2 mph 19 mph 43% 0 in
18:34 72.7 °F 49.6 °F 29.8 in ESE 11.8 mph 19 mph 44.2% 0 in
18:39 72.9 °F 50.2 °F 29.8 in ESE 11.6 mph 20.8 mph 45% 0 in
18:44 72.7 °F 50.2 °F 29.8 in SE 11.2 mph 21 mph 45.4% 0 in
18:49 72.5 °F 50.5 °F 29.8 in ESE 11.6 mph 20.8 mph 46% 0 in
18:54 72.9 °F 50.2 °F 29.8 in ESE 12.3 mph 21 mph 45% 0 in
18:59 73 °F 50.5 °F 29.8 in SE 11.4 mph 17.3 mph 45.3% 0 in
19:04 72.9 °F 50 °F 29.8 in SE 10.2 mph 17 mph 44.3% 0 in
19:09 73 °F 49.1 °F 29.7 in SE 10.1 mph 16.1 mph 42.7% 0 in
19:14 73.4 °F 48.6 °F 29.7 in SE 10 mph 16 mph 41.5% 0 in
19:19 73.8 °F 47.3 °F 29.8 in SE 9.3 mph 17.5 mph 39% 0 in
19:24 73.8 °F 46.8 °F 29.8 in SSE 8.1 mph 17.5 mph 38.3% 0 in
19:29 73.8 °F 45.1 °F 29.8 in SSE 8.3 mph 18.4 mph 36.2% 0 in
19:34 73.6 °F 44.6 °F 29.8 in SSE 8.7 mph 18 mph 35.4% 0 in
19:39 73.4 °F 44.4 °F 29.8 in SSE 9.1 mph 17 mph 35.4% 0 in
19:44 73.6 °F 44.2 °F 29.8 in SE 9.7 mph 15 mph 35% 0 in
19:49 73.8 °F 44.4 °F 29.8 in SSE 8.8 mph 15 mph 35% 0 in
19:54 73.6 °F 44.2 °F 29.8 in SE 7.4 mph 15 mph 35% 0 in
19:59 73.4 °F 44.2 °F 29.8 in SSE 7.4 mph 12 mph 35.2% 0 in
20:04 73.2 °F 44.4 °F 29.8 in SSE 7.4 mph 12 mph 35.6% 0 in
20:09 73 °F 43.9 °F 29.8 in SSE 7.5 mph 13.8 mph 35.1% 0 in
20:14 72.9 °F 43.7 °F 29.8 in SE 7.6 mph 15.2 mph 35% 0 in
20:19 72.5 °F 43.3 °F 29.8 in SE 7.6 mph 15 mph 35% 0 in
20:24 72.1 °F 43 °F 29.8 in SE 7.6 mph 15 mph 35% 0 in
20:29 72.1 °F 42.4 °F 29.8 in SE 7.8 mph 13 mph 34.3% 0 in
20:34 72 °F 41.9 °F 29.8 in SE 8.1 mph 13 mph 34% 0 in
20:39 72 °F 41.9 °F 29.8 in SE 7.5 mph 12 mph 34% 0 in
20:44 71.8 °F 41.9 °F 29.8 in SSE 6.4 mph 12 mph 34% 0 in
20:49 71.2 °F 41.4 °F 29.8 in SSE 6.6 mph 13.8 mph 33.9% 0 in
20:54 71.1 °F 41.4 °F 29.8 in SSE 6.9 mph 14 mph 34% 0 in
20:59 70.9 °F 41.2 °F 29.8 in SSE 6.9 mph 11.5 mph 34% 0 in
21:04 70.9 °F 41 °F 29.8 in SE 6.9 mph 12 mph 34% 0 in
21:09 70.7 °F 41.4 °F 29.8 in ESE 6.3 mph 10 mph 34.5% 0 in
21:14 70.3 °F 40.8 °F 29.8 in SE 5.4 mph 8 mph 34.1% 0 in
21:19 70.2 °F 40.6 °F 29.8 in ESE 5 mph 8.1 mph 34.3% 0 in
21:24 70 °F 41 °F 29.8 in ESE 4.3 mph 8 mph 35% 0 in
21:29 69.8 °F 40.8 °F 29.8 in ESE 4.2 mph 6.2 mph 35% 0 in
21:34 69.6 °F 40.6 °F 29.8 in SE 4 mph 6 mph 35% 0 in
21:39 69.4 °F 40.6 °F 29.8 in SE 3.7 mph 6 mph 35% 0 in
21:44 69.4 °F 39.9 °F 29.8 in SE 3.1 mph 8.1 mph 34.2% 0 in
21:49 69.4 °F 39.7 °F 29.8 in SE 3.4 mph 8.1 mph 34% 0 in
21:54 69.4 °F 39.7 °F 29.8 in SE 4 mph 7.4 mph 34% 0 in
21:59 69.1 °F 39.6 °F 29.8 in SE 4 mph 7 mph 34.1% 0 in
22:04 68.9 °F 39.4 °F 29.8 in SE 4 mph 6.9 mph 34% 0 in
22:09 68.5 °F 39 °F 29.8 in ESE 4 mph 7 mph 34% 0 in
22:14 68.5 °F 39 °F 29.8 in SE 4 mph 6 mph 34% 0 in
22:19 68.5 °F 38.5 °F 29.8 in SE 3.6 mph 6.2 mph 33.1% 0 in
22:24 68.7 °F 37.9 °F 29.8 in SSE 2.9 mph 6 mph 32.5% 0 in
22:29 68.7 °F 37.6 °F 29.8 in SSE 2.9 mph 5 mph 31.8% 0 in
22:34 68.9 °F 37.6 °F 29.8 in SSE 2.9 mph 5 mph 31.7% 0 in
22:39 68.9 °F 37.2 °F 29.8 in SSE 2.5 mph 3.6 mph 31.2% 0 in
22:44 68.9 °F 36.7 °F 29.8 in Sur 1.8 mph 8.1 mph 30.6% 0 in
22:49 69.1 °F 36.3 °F 29.8 in Sur 2.5 mph 8 mph 30% 0 in
22:54 69.1 °F 36.3 °F 29.8 in Sur 3.6 mph 6 mph 30% 0 in
22:59 69.1 °F 36.3 °F 29.8 in SSE 3.1 mph 5 mph 30% 0 in
23:04 69.1 °F 37 °F 29.8 in SSE 2.4 mph 5 mph 30.8% 0 in
23:09 69.1 °F 37.2 °F 29.8 in SSE 1.5 mph 2 mph 31% 0 in
23:14 68.7 °F 37.6 °F 29.8 in Calm   2.9 mph 31.8% 0 in
23:19 68.4 °F 38.3 °F 29.8 in NNO 0.7 mph 4.6 mph 33.1% 0 in
23:24 67.8 °F 38.5 °F 29.8 in NNO 1.8 mph 5 mph 34.1% 0 in
23:29 67.5 °F 39 °F 29.8 in NNE 2.1 mph 5 mph 35.4% 0 in
23:34 66.9 °F 39.6 °F 29.8 in North 2.4 mph 5 mph 36.6% 0 in
23:39 66.7 °F 39.6 °F 29.8 in NNO 2.4 mph 5.9 mph 37.1% 0 in
23:44 66.4 °F 39.9 °F 29.8 in North 2.4 mph 6 mph 38% 0 in
23:49 66.2 °F 39.7 °F 29.8 in NNO 2.6 mph 5 mph 38% 0 in
23:54 66 °F 39.7 °F 29.8 in North 2.9 mph 5 mph 38% 0 in
23:59 66 °F 39.7 °F 29.8 in NNO 2.5 mph 5 mph 38% 0 in
Murcia-Puente Tocinos, España
Compliments of Weather Underground - 3 mb

La estación de MeteoMurcia.com, publica sus datos en los siguientes proyectos:

Weather Underground PWS IMURCIAP2 Meteoclimatic www.awekas.at

W3Counter
Web Analytics